createdAt,value
2022-12-08T00:01:07.544Z,1.65
2022-12-08T00:03:34.682Z,1.56
2022-12-08T00:06:21.755Z,1.53
2022-12-08T00:09:07.021Z,1.58
2022-12-08T00:11:34.095Z,1.59
2022-12-08T00:14:00.851Z,1.63
2022-12-08T00:16:27.354Z,1.60
2022-12-08T00:18:53.918Z,1.63
2022-12-08T00:21:20.399Z,1.62
2022-12-08T00:23:46.805Z,1.62
2022-12-08T00:26:13.238Z,1.67
2022-12-08T00:28:39.665Z,1.61
2022-12-08T00:31:11.550Z,1.62
2022-12-08T00:33:38.468Z,1.54
2022-12-08T00:36:10.357Z,1.64
2022-12-08T00:38:37.240Z,1.62
2022-12-08T00:41:07.352Z,1.54
2022-12-08T00:43:33.824Z,1.65
2022-12-08T00:46:00.334Z,1.62
2022-12-08T00:48:26.894Z,1.66
2022-12-08T00:50:53.313Z,1.70
2022-12-08T00:53:19.745Z,1.69
2022-12-08T00:55:46.246Z,1.71
2022-12-08T00:58:13.121Z,1.69
2022-12-08T01:00:43.205Z,1.73
2022-12-08T01:03:13.242Z,1.78
2022-12-08T01:05:40.010Z,1.71
2022-12-08T01:08:08.119Z,1.71
2022-12-08T01:10:36.494Z,1.74
2022-12-08T01:13:03.638Z,1.67
2022-12-08T01:15:30.155Z,1.67
2022-12-08T01:17:56.659Z,1.67
2022-12-08T01:20:23.153Z,1.66
2022-12-08T01:22:49.574Z,1.65
2022-12-08T01:25:16.187Z,1.69
2022-12-08T01:27:42.586Z,1.70
2022-12-08T01:30:09.694Z,1.72
2022-12-08T01:32:36.169Z,1.74
2022-12-08T01:35:02.703Z,1.69
2022-12-08T01:37:29.649Z,1.76
2022-12-08T01:39:56.100Z,1.71
2022-12-08T01:42:23.266Z,1.71
2022-12-08T01:44:54.241Z,1.73
2022-12-08T01:47:22.779Z,1.71
2022-12-08T01:49:49.348Z,1.69
2022-12-08T01:52:43.076Z,1.73
2022-12-08T01:55:22.804Z,1.69
2022-12-08T01:57:52.774Z,1.69
2022-12-08T02:00:21.594Z,1.68
2022-12-08T02:02:59.459Z,1.74
2022-12-08T02:05:29.375Z,1.65
2022-12-08T02:07:57.819Z,1.73
2022-12-08T02:10:29.593Z,1.69
2022-12-08T02:12:58.758Z,1.67
2022-12-08T02:15:50.792Z,1.67
2022-12-08T02:18:39.731Z,1.65
2022-12-08T02:21:23.317Z,1.64
2022-12-08T02:23:59.149Z,1.61
2022-12-08T02:26:46.948Z,1.62
2022-12-08T02:29:45.372Z,1.61
2022-12-08T02:32:49.266Z,1.60
2022-12-08T02:35:18.698Z,1.62
2022-12-08T02:37:56.911Z,1.60
2022-12-08T02:40:49.742Z,1.61
2022-12-08T02:43:38.825Z,1.60
2022-12-08T02:46:11.254Z,1.56
2022-12-08T02:48:38.371Z,1.60
2022-12-08T02:51:06.214Z,1.59
2022-12-08T02:53:35.137Z,1.63
2022-12-08T02:56:14.858Z,1.68
2022-12-08T02:59:10.261Z,1.57
2022-12-08T03:01:37.105Z,1.61
2022-12-08T03:04:27.721Z,1.62
2022-12-08T03:07:11.496Z,1.62
2022-12-08T03:10:07.831Z,1.60
2022-12-08T03:12:42.916Z,1.63
2022-12-08T03:15:14.363Z,1.68
2022-12-08T03:17:45.657Z,1.59
2022-12-08T03:20:18.289Z,1.37
2022-12-08T03:22:47.026Z,1.62
2022-12-08T03:25:15.388Z,1.64
2022-12-08T03:27:42.070Z,1.61
2022-12-08T03:30:09.910Z,1.52
2022-12-08T03:32:41.348Z,1.57
2022-12-08T03:35:15.389Z,1.49
2022-12-08T03:37:42.127Z,1.50
2022-12-08T03:40:11.477Z,1.49
2022-12-08T03:42:38.105Z,1.45
2022-12-08T03:45:05.393Z,1.42
2022-12-08T03:47:31.864Z,1.44
2022-12-08T03:49:59.328Z,1.45
2022-12-08T03:52:25.782Z,1.45
2022-12-08T03:54:52.188Z,1.47
2022-12-08T03:57:18.623Z,1.43
2022-12-08T03:59:45.029Z,1.46
2022-12-08T04:02:11.569Z,1.47
2022-12-08T04:04:38.050Z,1.47
2022-12-08T04:07:04.530Z,1.46
2022-12-08T04:09:31.543Z,1.46
2022-12-08T04:11:58.002Z,1.42
2022-12-08T04:14:24.447Z,1.46
2022-12-08T04:16:50.843Z,1.47
2022-12-08T04:19:17.349Z,1.47
2022-12-08T04:21:43.821Z,1.47
2022-12-08T04:24:10.294Z,1.48
2022-12-08T04:26:36.677Z,1.48
2022-12-08T04:29:03.242Z,1.47
2022-12-08T04:31:29.789Z,1.48
2022-12-08T04:33:56.553Z,1.48
2022-12-08T04:36:23.095Z,1.48
2022-12-08T04:38:49.603Z,1.50
2022-12-08T04:41:16.026Z,1.49
2022-12-08T04:43:44.266Z,1.51
2022-12-08T04:46:11.327Z,1.52
2022-12-08T04:48:38.447Z,1.51
2022-12-08T04:51:05.133Z,1.51
2022-12-08T04:53:31.853Z,1.51
2022-12-08T04:55:58.425Z,1.46
2022-12-08T04:58:24.931Z,1.45
2022-12-08T05:00:51.607Z,1.38
2022-12-08T05:03:18.113Z,1.53
2022-12-08T05:05:45.593Z,1.20
2022-12-08T05:08:12.634Z,1.09
2022-12-08T05:10:39.990Z,1.31
2022-12-08T05:13:06.654Z,1.38
2022-12-08T05:15:33.148Z,1.53
2022-12-08T05:17:59.875Z,1.47
2022-12-08T05:20:29.354Z,1.45
2022-12-08T05:22:56.388Z,0.66
2022-12-08T05:25:23.179Z,1.53
2022-12-08T05:27:49.880Z,0.99
2022-12-08T05:30:17.104Z,1.45
2022-12-08T05:32:44.311Z,1.25
2022-12-08T05:35:12.016Z,1.51
2022-12-08T05:37:38.705Z,1.45
2022-12-08T05:40:08.591Z,1.00
2022-12-08T05:42:36.047Z,2.78
2022-12-08T05:45:03.026Z,3.60
2022-12-08T05:47:35.709Z,4.11
2022-12-08T05:50:03.076Z,4.30
2022-12-08T05:52:31.734Z,4.72
2022-12-08T05:54:58.535Z,4.75
2022-12-08T05:57:25.566Z,4.57
2022-12-08T05:59:52.155Z,4.10
2022-12-08T06:02:19.687Z,3.52
2022-12-08T06:04:46.717Z,3.16
2022-12-08T06:07:16.150Z,2.88
2022-12-08T06:09:44.752Z,2.70
2022-12-08T06:12:13.157Z,2.56
2022-12-08T06:14:41.229Z,2.39
2022-12-08T06:17:08.240Z,2.37
2022-12-08T06:19:34.984Z,2.09
2022-12-08T06:22:03.049Z,2.22
2022-12-08T06:24:31.759Z,1.94
2022-12-08T06:27:02.409Z,2.05
2022-12-08T06:29:28.920Z,1.79
2022-12-08T06:31:56.683Z,2.01
2022-12-08T06:34:23.415Z,1.86
2022-12-08T06:36:49.898Z,1.41
2022-12-08T06:39:16.440Z,1.74
2022-12-08T06:42:04.699Z,1.77
2022-12-08T06:44:35.790Z,1.65
2022-12-08T06:47:05.942Z,1.40
2022-12-08T06:49:32.627Z,1.21
2022-12-08T06:52:00.281Z,0.79
2022-12-08T06:54:26.811Z,1.33
2022-12-08T06:56:54.322Z,1.66
2022-12-08T06:59:20.876Z,1.57
2022-12-08T07:01:48.638Z,1.65
2022-12-08T07:04:17.700Z,1.56
2022-12-08T07:06:45.628Z,1.30
2022-12-08T07:09:12.507Z,1.64
2022-12-08T07:11:40.376Z,1.60
2022-12-08T07:14:07.631Z,1.70
2022-12-08T07:16:34.828Z,1.69
2022-12-08T07:19:03.642Z,1.63
2022-12-08T07:21:30.627Z,1.23
2022-12-08T07:23:58.095Z,1.66
2022-12-08T07:26:25.864Z,1.66
2022-12-08T07:28:53.796Z,1.64
2022-12-08T07:31:23.032Z,1.65
2022-12-08T07:33:50.886Z,1.66
2022-12-08T07:36:17.994Z,1.20
2022-12-08T07:38:44.810Z,1.56
2022-12-08T07:41:23.209Z,1.44
2022-12-08T07:43:53.775Z,1.71
2022-12-08T07:46:27.284Z,1.69
2022-12-08T07:48:55.218Z,1.52
2022-12-08T07:51:22.747Z,1.68
2022-12-08T07:53:54.141Z,1.70
2022-12-08T07:56:22.130Z,1.69
2022-12-08T07:58:48.723Z,1.41
2022-12-08T08:01:24.992Z,1.68
2022-12-08T08:03:55.253Z,1.58
2022-12-08T08:06:25.689Z,1.47
2022-12-08T08:08:53.489Z,1.63
2022-12-08T08:11:22.663Z,1.74
2022-12-08T08:13:50.215Z,1.45
2022-12-08T08:16:19.292Z,1.57
2022-12-08T08:18:51.251Z,1.32
2022-12-08T08:24:07.652Z,1.61
2022-12-08T08:26:34.471Z,1.69
2022-12-08T08:29:02.834Z,1.82
2022-12-08T08:31:29.354Z,1.77
2022-12-08T08:33:57.461Z,1.75
2022-12-08T08:36:24.306Z,1.85
2022-12-08T08:38:53.653Z,1.79
2022-12-08T08:41:20.430Z,1.78
2022-12-08T08:43:49.228Z,1.73
2022-12-08T08:46:16.148Z,1.54
2022-12-08T08:48:43.187Z,1.58
2022-12-08T08:51:16.791Z,1.89
2022-12-08T08:53:44.584Z,1.72
2022-12-08T08:56:20.446Z,1.94
2022-12-08T08:58:57.351Z,1.94
2022-12-08T09:01:27.749Z,1.58
2022-12-08T09:03:59.663Z,1.97
2022-12-08T09:06:28.281Z,1.95
2022-12-08T09:08:55.084Z,1.01
2022-12-08T09:11:23.410Z,1.76
2022-12-08T09:13:52.191Z,2.01
2022-12-08T09:16:19.559Z,2.02
2022-12-08T09:18:48.261Z,1.41
2022-12-08T09:21:23.307Z,2.06
2022-12-08T09:24:00.346Z,1.84
2022-12-08T09:26:28.922Z,2.12
2022-12-08T09:28:56.918Z,2.10
2022-12-08T09:31:24.816Z,1.77
2022-12-08T09:33:51.754Z,1.95
2022-12-08T09:36:31.267Z,2.18
2022-12-08T09:38:58.028Z,1.62
2022-12-08T09:41:37.914Z,2.09
2022-12-08T09:44:25.671Z,2.12
2022-12-08T09:46:53.561Z,1.29
2022-12-08T09:49:24.627Z,2.13
2022-12-08T09:51:56.029Z,1.96
2022-12-08T09:54:33.634Z,1.92
2022-12-08T09:57:07.234Z,1.41
2022-12-08T09:59:35.870Z,2.10
2022-12-08T10:02:05.820Z,2.19
2022-12-08T10:04:39.087Z,2.03
2022-12-08T10:07:19.300Z,2.23
2022-12-08T10:10:01.028Z,1.93
2022-12-08T10:12:44.710Z,2.18
2022-12-08T10:15:39.518Z,2.21
2022-12-08T10:18:17.993Z,2.22
2022-12-08T10:20:47.981Z,2.20
2022-12-08T10:23:37.000Z,2.15
2022-12-08T10:26:12.316Z,2.24
2022-12-08T10:28:45.788Z,2.23
2022-12-08T10:31:23.565Z,2.00
2022-12-08T10:33:58.984Z,2.28
2022-12-08T10:36:56.444Z,2.24
2022-12-08T10:39:40.238Z,2.29
2022-12-08T10:42:22.469Z,2.27
2022-12-08T10:45:24.224Z,2.39
2022-12-08T10:48:02.421Z,2.27
2022-12-08T10:50:35.837Z,2.48
2022-12-08T10:53:08.768Z,2.51
2022-12-08T10:55:47.465Z,2.25
2022-12-08T10:58:25.235Z,2.11
2022-12-08T11:03:56.797Z,2.58
2022-12-08T11:06:33.073Z,2.63
2022-12-08T11:09:10.670Z,2.62
2022-12-08T11:12:07.297Z,2.65
2022-12-08T11:14:46.124Z,2.67
2022-12-08T11:17:31.697Z,2.63
2022-12-08T11:20:08.930Z,2.25
2022-12-08T11:22:39.730Z,2.49
2022-12-08T11:25:21.202Z,2.61
2022-12-08T11:27:50.886Z,2.49
2022-12-08T11:30:36.953Z,2.79
2022-12-08T11:33:13.310Z,2.82
2022-12-08T11:35:43.350Z,2.76
2022-12-08T11:38:22.796Z,2.78
2022-12-08T11:41:16.132Z,2.80
2022-12-08T11:44:11.654Z,2.80
2022-12-08T11:47:18.088Z,2.74
2022-12-08T11:49:48.075Z,2.86
2022-12-08T11:52:31.658Z,2.72
2022-12-08T11:55:50.195Z,2.88
2022-12-08T11:58:27.185Z,2.80
2022-12-08T12:00:54.017Z,2.75
2022-12-08T12:03:46.498Z,3.02
2022-12-08T12:06:56.272Z,3.15
2022-12-08T12:09:38.144Z,3.13
2022-12-08T12:12:39.422Z,3.17
2022-12-08T12:15:19.114Z,3.24
2022-12-08T12:17:59.376Z,3.23
2022-12-08T12:20:38.002Z,3.25
2022-12-08T12:23:19.310Z,3.20
2022-12-08T12:26:03.083Z,3.25
2022-12-08T12:28:40.718Z,3.21
2022-12-08T12:31:18.279Z,3.12
2022-12-08T12:33:46.605Z,3.26
2022-12-08T12:36:14.709Z,3.32
2022-12-08T12:39:09.631Z,3.15
2022-12-08T12:41:53.508Z,2.86
2022-12-08T12:44:35.811Z,3.31
2022-12-08T12:47:10.682Z,3.16
2022-12-08T12:49:40.248Z,3.37
2022-12-08T12:52:12.384Z,3.38
2022-12-08T12:54:45.047Z,3.44
2022-12-08T12:57:23.505Z,3.46
2022-12-08T12:59:57.236Z,3.55
2022-12-08T13:02:26.185Z,3.41
2022-12-08T13:05:14.412Z,3.66
2022-12-08T13:08:02.588Z,3.72
2022-12-08T13:10:32.826Z,3.70
2022-12-08T13:13:12.679Z,3.86
2022-12-08T13:15:46.972Z,3.59
2022-12-08T13:18:21.816Z,3.62
2022-12-08T13:20:56.206Z,3.75
2022-12-08T13:24:07.705Z,3.73
2022-12-08T13:26:44.233Z,3.64
2022-12-08T13:29:29.116Z,3.35
2022-12-08T13:31:56.874Z,3.59
2022-12-08T13:34:55.756Z,3.65
2022-12-08T13:37:31.236Z,3.57
2022-12-08T13:40:26.494Z,3.54
2022-12-08T13:43:16.805Z,3.49
2022-12-08T13:46:52.533Z,3.30
2022-12-08T13:55:49.532Z,3.38
2022-12-08T13:57:39.019Z,3.38
2022-12-08T14:00:14.833Z,3.31
2022-12-08T14:02:48.591Z,3.13
2022-12-08T14:05:20.411Z,3.23
2022-12-08T14:08:06.737Z,3.04
2022-12-08T14:10:33.535Z,2.27
2022-12-08T14:13:12.180Z,3.13
2022-12-08T14:15:45.300Z,3.07
2022-12-08T14:18:29.404Z,2.71
2022-12-08T14:21:21.944Z,2.65
2022-12-08T14:23:50.501Z,2.78
2022-12-08T14:26:18.574Z,2.65
2022-12-08T14:28:46.749Z,2.73
2022-12-08T14:31:15.869Z,2.83
2022-12-08T14:33:43.780Z,2.89
2022-12-08T14:36:11.217Z,2.77
2022-12-08T14:38:39.460Z,2.93
2022-12-08T14:41:09.132Z,2.05
2022-12-08T14:43:41.044Z,2.91
2022-12-08T14:46:28.488Z,2.73
2022-12-08T14:48:58.195Z,2.83
2022-12-08T14:51:35.493Z,2.88
2022-12-08T14:54:16.233Z,2.88
2022-12-08T14:56:54.901Z,2.88
2022-12-08T14:59:27.227Z,2.81
2022-12-08T15:02:18.220Z,2.85
2022-12-08T15:04:55.266Z,2.80
2022-12-08T15:07:31.090Z,2.77
2022-12-08T15:10:31.859Z,2.66
2022-12-08T15:13:14.508Z,2.71
2022-12-08T15:15:56.634Z,2.59
2022-12-08T15:18:43.939Z,2.65
2022-12-08T15:21:15.544Z,2.63
2022-12-08T15:23:50.512Z,2.34
2022-12-08T15:26:23.601Z,2.59
2022-12-08T15:28:52.527Z,2.60
2022-12-08T15:31:20.352Z,2.45
2022-12-08T15:33:47.158Z,2.34
2022-12-08T15:36:18.994Z,2.22
2022-12-08T15:38:45.578Z,2.30
2022-12-08T15:41:15.354Z,2.50
2022-12-08T15:43:42.195Z,2.37
2022-12-08T15:46:08.913Z,2.48
2022-12-08T15:48:37.768Z,2.02
2022-12-08T15:51:04.449Z,2.46
2022-12-08T15:53:32.357Z,1.98
2022-12-08T15:56:26.857Z,2.47
2022-12-08T15:58:58.913Z,2.02
2022-12-08T16:01:28.484Z,2.40
2022-12-08T16:09:41.717Z,2.22
2022-12-08T16:13:13.849Z,2.33
2022-12-08T16:18:15.705Z,2.22
2022-12-08T16:21:07.561Z,2.28
2022-12-08T16:23:42.787Z,2.28
2022-12-08T16:26:44.156Z,2.14
2022-12-08T16:29:05.375Z,2.23
2022-12-08T16:31:33.935Z,2.14
2022-12-08T16:34:08.199Z,2.05
2022-12-08T16:36:37.256Z,1.86
2022-12-08T16:39:08.057Z,2.05
2022-12-08T16:42:14.328Z,2.09
2022-12-08T16:44:42.400Z,2.17
2022-12-08T16:47:11.241Z,1.87
2022-12-08T16:49:42.750Z,2.00
2022-12-08T16:52:10.532Z,2.19
2022-12-08T16:54:39.309Z,1.78
2022-12-08T16:57:06.029Z,1.96
2022-12-08T16:59:32.582Z,1.86
2022-12-08T17:01:59.161Z,1.98
2022-12-08T17:04:33.321Z,2.01
2022-12-08T17:07:00.410Z,1.68
2022-12-08T17:09:31.419Z,1.85
2022-12-08T17:12:03.680Z,1.74
2022-12-08T17:14:35.457Z,1.53
2022-12-08T17:17:03.241Z,1.45
2022-12-08T17:19:38.425Z,1.53
2022-12-08T17:22:05.301Z,1.66
2022-12-08T17:24:32.107Z,1.58
2022-12-08T17:27:06.992Z,1.55
2022-12-08T17:29:34.837Z,1.69
2022-12-08T17:32:03.583Z,1.64
2022-12-08T17:34:31.788Z,1.28
2022-12-08T17:37:01.166Z,1.31
2022-12-08T17:39:28.253Z,1.43
2022-12-08T17:41:54.923Z,1.47
2022-12-08T17:44:21.809Z,1.38
2022-12-08T17:46:52.900Z,0.69
2022-12-08T17:49:26.427Z,1.49
2022-12-08T17:51:58.393Z,1.03
2022-12-08T17:54:27.804Z,1.57
2022-12-08T17:57:01.879Z,1.57
2022-12-08T17:59:30.688Z,1.43
2022-12-08T18:01:58.903Z,1.59
2022-12-08T18:04:26.758Z,1.60
2022-12-08T18:06:53.738Z,1.43
2022-12-08T18:09:20.704Z,1.58
2022-12-08T18:11:48.766Z,1.43
2022-12-08T18:14:17.154Z,1.59
2022-12-08T18:16:45.551Z,1.62
2022-12-08T18:19:16.486Z,1.61
2022-12-08T18:21:43.885Z,1.56
2022-12-08T18:24:19.221Z,1.58
2022-12-08T18:26:47.314Z,1.42
2022-12-08T18:29:14.782Z,1.07
2022-12-08T18:31:42.343Z,1.29
2022-12-08T18:34:11.339Z,1.12
2022-12-08T18:36:37.878Z,1.25
2022-12-08T18:39:10.523Z,1.41
2022-12-08T18:41:37.533Z,1.07
2022-12-08T18:44:04.335Z,1.03
2022-12-08T18:46:31.080Z,1.01
2022-12-08T18:48:58.179Z,0.31
2022-12-08T18:51:24.820Z,0.21
2022-12-08T18:53:53.157Z,-0.16
2022-12-08T18:56:28.373Z,0.11
2022-12-08T18:59:03.323Z,0.26
2022-12-08T19:01:31.898Z,0.53
2022-12-08T19:06:53.249Z,0.41
2022-12-08T19:09:20.525Z,0.84
2022-12-08T19:11:47.252Z,0.61
2022-12-08T19:17:05.294Z,0.78
2022-12-08T19:19:31.980Z,0.86
2022-12-08T19:22:00.196Z,1.02
2022-12-08T19:24:29.688Z,0.87
2022-12-08T19:26:56.347Z,1.10
2022-12-08T19:29:23.294Z,0.93
2022-12-08T19:31:51.314Z,0.66
2022-12-08T19:34:18.283Z,0.89
2022-12-08T19:36:50.398Z,1.02
2022-12-08T19:39:39.333Z,0.85
2022-12-08T19:42:34.606Z,0.99
2022-12-08T19:45:05.874Z,0.96
2022-12-08T19:47:32.653Z,1.05
2022-12-08T19:50:17.958Z,0.88
2022-12-08T19:52:45.315Z,0.69
2022-12-08T19:55:12.842Z,0.74
2022-12-08T19:57:39.619Z,0.11
2022-12-08T20:00:09.728Z,-0.07
2022-12-08T20:02:38.972Z,-0.10
2022-12-08T20:05:06.602Z,0.10
2022-12-08T20:07:34.090Z,0.42
2022-12-08T20:10:02.848Z,0.47
2022-12-08T20:12:29.480Z,0.55
2022-12-08T20:14:58.263Z,0.47
2022-12-08T20:17:27.454Z,0.70
2022-12-08T20:19:53.989Z,0.50
2022-12-08T20:22:23.567Z,0.70
2022-12-08T20:24:58.408Z,0.42
2022-12-08T20:27:29.204Z,0.51
2022-12-08T20:29:57.478Z,0.73
2022-12-08T20:32:24.315Z,0.70
2022-12-08T20:34:51.020Z,-0.11
2022-12-08T20:37:17.770Z,0.44
2022-12-08T20:39:44.471Z,0.78
2022-12-08T20:42:13.898Z,0.74
2022-12-08T20:44:44.363Z,0.15
2022-12-08T20:47:12.339Z,0.27
2022-12-08T20:49:39.265Z,0.38
2022-12-08T20:52:07.690Z,0.30
2022-12-08T20:54:35.151Z,-0.33
2022-12-08T20:57:01.794Z,-0.22
2022-12-08T20:59:29.662Z,0.18
2022-12-08T21:01:56.703Z,-0.16
2022-12-08T21:04:23.891Z,0.41
2022-12-08T21:06:50.642Z,0.52
2022-12-08T21:09:17.674Z,0.41
2022-12-08T21:11:49.237Z,0.15
2022-12-08T21:14:15.986Z,0.34
2022-12-08T21:16:42.672Z,0.32
2022-12-08T21:19:09.905Z,0.39
2022-12-08T21:21:36.572Z,-0.01
2022-12-08T21:24:05.747Z,0.01
2022-12-08T21:26:32.785Z,0.08
2022-12-08T21:29:00.235Z,0.32
2022-12-08T21:31:28.904Z,0.46
2022-12-08T21:33:55.749Z,0.50
2022-12-08T21:36:24.213Z,0.36
2022-12-08T21:38:51.382Z,0.15
2022-12-08T21:41:38.670Z,0.51
2022-12-08T21:44:08.952Z,0.34
2022-12-08T21:46:35.991Z,0.52
2022-12-08T21:49:03.596Z,0.47
2022-12-08T21:51:33.468Z,0.61
2022-12-08T21:54:00.858Z,0.62
2022-12-08T21:56:27.830Z,0.38
2022-12-08T21:58:54.671Z,0.47
2022-12-08T22:01:21.444Z,-0.05
2022-12-08T22:03:48.390Z,0.40
2022-12-08T22:06:15.198Z,0.57
2022-12-08T22:08:42.873Z,0.32
2022-12-08T22:11:11.444Z,0.49
2022-12-08T22:13:41.633Z,0.62
2022-12-08T22:16:11.496Z,0.61
2022-12-08T22:18:38.762Z,0.45
2022-12-08T22:21:16.720Z,0.58
2022-12-08T22:23:44.554Z,0.39
2022-12-08T22:26:11.804Z,0.62
2022-12-08T22:28:42.949Z,0.46
2022-12-08T22:31:17.481Z,0.59
2022-12-08T22:33:44.976Z,0.57
2022-12-08T22:36:22.574Z,0.50
2022-12-08T22:38:50.734Z,0.51
2022-12-08T22:41:18.341Z,0.13
2022-12-08T22:43:46.305Z,0.03
2022-12-08T22:46:16.071Z,0.37
2022-12-08T22:48:46.092Z,-0.09
2022-12-08T22:51:13.083Z,0.27
2022-12-08T22:53:40.709Z,0.11
2022-12-08T22:56:10.057Z,0.31
2022-12-08T22:58:38.790Z,0.20
2022-12-08T23:01:07.614Z,0.16
2022-12-08T23:03:34.825Z,-0.03
2022-12-08T23:06:02.398Z,0.15
2022-12-08T23:08:29.358Z,-0.13
2022-12-08T23:10:57.970Z,0.12
2022-12-08T23:13:24.962Z,0.04
2022-12-08T23:15:51.828Z,-0.09
2022-12-08T23:18:19.594Z,0.27
2022-12-08T23:20:47.041Z,0.22
2022-12-08T23:23:14.240Z,0.05
2022-12-08T23:25:43.030Z,0.06
2022-12-08T23:28:10.721Z,0.17
2022-12-08T23:30:40.789Z,0.16
2022-12-08T23:33:07.453Z,-0.03
2022-12-08T23:35:34.107Z,-0.00
2022-12-08T23:38:00.810Z,0.11
2022-12-08T23:40:27.511Z,-0.36
2022-12-08T23:42:54.413Z,-0.10
2022-12-08T23:45:21.193Z,-0.01
2022-12-08T23:47:47.712Z,0.08
2022-12-08T23:50:14.522Z,0.09
2022-12-08T23:52:43.215Z,-0.12
2022-12-08T23:55:11.455Z,-0.15
2022-12-08T23:57:38.775Z,-0.24
